sensor_id;sensor_type;location;lat;lon;timestamp;P1;durP1;ratioP1;P2;durP2;ratioP2
31464;SDS011;18089;47.428;15.006;2022-07-03T00:00:39;5.60;;;5.13;;
31464;SDS011;18089;47.428;15.006;2022-07-03T00:03:11;7.38;;;5.32;;
31464;SDS011;18089;47.428;15.006;2022-07-03T00:05:44;6.10;;;5.50;;
31464;SDS011;18089;47.428;15.006;2022-07-03T00:08:16;8.15;;;5.20;;
31464;SDS011;18089;47.428;15.006;2022-07-03T00:10:48;5.28;;;4.88;;
31464;SDS011;18089;47.428;15.006;2022-07-03T00:13:20;7.22;;;5.00;;
31464;SDS011;18089;47.428;15.006;2022-07-03T00:15:52;7.93;;;4.50;;
31464;SDS011;18089;47.428;15.006;2022-07-03T00:18:24;6.32;;;4.60;;
31464;SDS011;18089;47.428;15.006;2022-07-03T00:20:59;5.72;;;5.10;;
31464;SDS011;18089;47.428;15.006;2022-07-03T00:23:35;5.00;;;4.60;;
31464;SDS011;18089;47.428;15.006;2022-07-03T00:26:11;5.70;;;5.25;;
31464;SDS011;18089;47.428;15.006;2022-07-03T00:28:44;5.47;;;5.07;;
31464;SDS011;18089;47.428;15.006;2022-07-03T00:31:17;5.40;;;4.90;;
31464;SDS011;18089;47.428;15.006;2022-07-03T00:33:49;5.97;;;5.10;;
31464;SDS011;18089;47.428;15.006;2022-07-03T00:36:24;7.97;;;5.32;;
31464;SDS011;18089;47.428;15.006;2022-07-03T00:38:58;5.65;;;4.97;;
31464;SDS011;18089;47.428;15.006;2022-07-03T00:41:30;5.25;;;4.78;;
31464;SDS011;18089;47.428;15.006;2022-07-03T00:44:04;5.57;;;5.18;;
31464;SDS011;18089;47.428;15.006;2022-07-03T00:46:37;6.13;;;5.63;;
31464;SDS011;18089;47.428;15.006;2022-07-03T00:49:10;5.43;;;5.03;;
31464;SDS011;18089;47.428;15.006;2022-07-03T00:51:43;6.13;;;5.72;;
31464;SDS011;18089;47.428;15.006;2022-07-03T00:54:23;5.45;;;4.95;;
31464;SDS011;18089;47.428;15.006;2022-07-03T00:56:55;6.22;;;5.63;;
31464;SDS011;18089;47.428;15.006;2022-07-03T00:59:31;5.78;;;5.22;;
31464;SDS011;18089;47.428;15.006;2022-07-03T01:02:04;5.72;;;5.28;;
31464;SDS011;18089;47.428;15.006;2022-07-03T01:04:40;5.97;;;5.28;;
31464;SDS011;18089;47.428;15.006;2022-07-03T01:07:23;6.13;;;5.72;;
31464;SDS011;18089;47.428;15.006;2022-07-03T01:10:03;5.95;;;5.45;;
31464;SDS011;18089;47.428;15.006;2022-07-03T01:12:38;7.15;;;5.05;;
31464;SDS011;18089;47.428;15.006;2022-07-03T01:15:19;7.55;;;5.10;;
31464;SDS011;18089;47.428;15.006;2022-07-03T01:17:59;7.53;;;5.88;;
31464;SDS011;18089;47.428;15.006;2022-07-03T01:20:41;6.55;;;5.95;;
31464;SDS011;18089;47.428;15.006;2022-07-03T01:23:19;6.65;;;6.05;;
31464;SDS011;18089;47.428;15.006;2022-07-03T01:25:56;6.03;;;5.53;;
31464;SDS011;18089;47.428;15.006;2022-07-03T01:28:31;6.40;;;5.80;;
31464;SDS011;18089;47.428;15.006;2022-07-03T01:31:04;6.40;;;5.90;;
31464;SDS011;18089;47.428;15.006;2022-07-03T01:33:36;6.20;;;5.75;;
31464;SDS011;18089;47.428;15.006;2022-07-03T01:36:09;6.60;;;5.82;;
31464;SDS011;18089;47.428;15.006;2022-07-03T01:38:44;6.00;;;5.60;;
31464;SDS011;18089;47.428;15.006;2022-07-03T01:41:18;5.97;;;5.38;;
31464;SDS011;18089;47.428;15.006;2022-07-03T01:43:56;8.63;;;5.68;;
31464;SDS011;18089;47.428;15.006;2022-07-03T01:46:32;7.32;;;6.45;;
31464;SDS011;18089;47.428;15.006;2022-07-03T01:49:04;7.40;;;6.10;;
31464;SDS011;18089;47.428;15.006;2022-07-03T01:51:38;6.97;;;6.32;;
31464;SDS011;18089;47.428;15.006;2022-07-03T01:54:10;6.15;;;5.75;;
31464;SDS011;18089;47.428;15.006;2022-07-03T01:56:44;7.28;;;6.57;;
31464;SDS011;18089;47.428;15.006;2022-07-03T01:59:16;6.32;;;5.68;;
31464;SDS011;18089;47.428;15.006;2022-07-03T02:01:49;6.45;;;5.93;;
31464;SDS011;18089;47.428;15.006;2022-07-03T02:04:23;6.25;;;5.75;;
31464;SDS011;18089;47.428;15.006;2022-07-03T02:06:59;7.72;;;6.35;;
31464;SDS011;18089;47.428;15.006;2022-07-03T02:09:35;7.50;;;6.00;;
31464;SDS011;18089;47.428;15.006;2022-07-03T02:12:18;8.90;;;5.88;;
31464;SDS011;18089;47.428;15.006;2022-07-03T02:14:53;6.68;;;6.18;;
31464;SDS011;18089;47.428;15.006;2022-07-03T02:17:35;6.82;;;5.72;;
31464;SDS011;18089;47.428;15.006;2022-07-03T02:20:08;6.57;;;6.00;;
31464;SDS011;18089;47.428;15.006;2022-07-03T02:22:42;6.93;;;6.32;;
31464;SDS011;18089;47.428;15.006;2022-07-03T02:25:16;6.45;;;5.95;;
31464;SDS011;18089;47.428;15.006;2022-07-03T02:27:53;6.97;;;6.38;;
31464;SDS011;18089;47.428;15.006;2022-07-03T02:30:27;7.10;;;6.38;;
31464;SDS011;18089;47.428;15.006;2022-07-03T02:33:01;6.72;;;6.15;;
31464;SDS011;18089;47.428;15.006;2022-07-03T02:35:33;6.75;;;6.18;;
31464;SDS011;18089;47.428;15.006;2022-07-03T02:38:06;6.35;;;5.85;;
31464;SDS011;18089;47.428;15.006;2022-07-03T02:40:43;8.07;;;6.65;;
31464;SDS011;18089;47.428;15.006;2022-07-03T02:43:19;7.13;;;6.00;;
31464;SDS011;18089;47.428;15.006;2022-07-03T02:45:57;7.68;;;6.45;;
31464;SDS011;18089;47.428;15.006;2022-07-03T02:51:44;6.72;;;5.93;;
31464;SDS011;18089;47.428;15.006;2022-07-03T02:54:19;7.00;;;6.40;;
31464;SDS011;18089;47.428;15.006;2022-07-03T02:56:55;7.20;;;6.60;;
31464;SDS011;18089;47.428;15.006;2022-07-03T02:59:35;6.90;;;6.25;;
31464;SDS011;18089;47.428;15.006;2022-07-03T03:02:13;6.90;;;6.40;;
31464;SDS011;18089;47.428;15.006;2022-07-03T03:04:51;7.03;;;6.30;;
31464;SDS011;18089;47.428;15.006;2022-07-03T03:07:35;7.43;;;6.70;;
31464;SDS011;18089;47.428;15.006;2022-07-03T03:10:13;7.80;;;6.30;;
31464;SDS011;18089;47.428;15.006;2022-07-03T03:12:46;9.15;;;6.28;;
31464;SDS011;18089;47.428;15.006;2022-07-03T03:15:25;9.27;;;6.72;;
31464;SDS011;18089;47.428;15.006;2022-07-03T03:18:00;8.50;;;5.95;;
31464;SDS011;18089;47.428;15.006;2022-07-03T03:20:35;7.10;;;6.10;;
31464;SDS011;18089;47.428;15.006;2022-07-03T03:23:10;7.20;;;6.50;;
31464;SDS011;18089;47.428;15.006;2022-07-03T03:25:47;7.18;;;6.47;;
31464;SDS011;18089;47.428;15.006;2022-07-03T03:28:21;6.80;;;6.20;;
31464;SDS011;18089;47.428;15.006;2022-07-03T03:30:55;6.80;;;6.20;;
31464;SDS011;18089;47.428;15.006;2022-07-03T03:33:27;7.55;;;6.72;;
31464;SDS011;18089;47.428;15.006;2022-07-03T03:35:59;7.25;;;6.57;;
31464;SDS011;18089;47.428;15.006;2022-07-03T03:38:31;6.57;;;6.07;;
31464;SDS011;18089;47.428;15.006;2022-07-03T03:41:03;7.07;;;6.38;;
31464;SDS011;18089;47.428;15.006;2022-07-03T03:43:36;7.45;;;6.75;;
31464;SDS011;18089;47.428;15.006;2022-07-03T03:46:10;7.15;;;6.55;;
31464;SDS011;18089;47.428;15.006;2022-07-03T03:48:42;7.13;;;6.00;;
31464;SDS011;18089;47.428;15.006;2022-07-03T03:51:14;9.25;;;6.22;;
31464;SDS011;18089;47.428;15.006;2022-07-03T03:53:46;6.80;;;6.30;;
31464;SDS011;18089;47.428;15.006;2022-07-03T03:56:18;6.63;;;6.03;;
31464;SDS011;18089;47.428;15.006;2022-07-03T03:58:50;6.47;;;5.95;;
31464;SDS011;18089;47.428;15.006;2022-07-03T04:01:24;6.95;;;6.35;;
31464;SDS011;18089;47.428;15.006;2022-07-03T04:03:56;6.85;;;6.35;;
31464;SDS011;18089;47.428;15.006;2022-07-03T04:06:29;7.93;;;6.30;;
31464;SDS011;18089;47.428;15.006;2022-07-03T04:09:01;6.90;;;6.30;;
31464;SDS011;18089;47.428;15.006;2022-07-03T04:11:33;7.20;;;6.15;;
31464;SDS011;18089;47.428;15.006;2022-07-03T04:14:05;6.88;;;5.85;;
31464;SDS011;18089;47.428;15.006;2022-07-03T04:16:39;6.53;;;5.90;;
31464;SDS011;18089;47.428;15.006;2022-07-03T04:19:11;6.95;;;6.30;;
31464;SDS011;18089;47.428;15.006;2022-07-03T04:21:43;7.07;;;6.47;;
31464;SDS011;18089;47.428;15.006;2022-07-03T04:24:15;7.55;;;6.82;;
31464;SDS011;18089;47.428;15.006;2022-07-03T04:26:47;7.72;;;6.65;;
31464;SDS011;18089;47.428;15.006;2022-07-03T04:29:19;8.38;;;6.38;;
31464;SDS011;18089;47.428;15.006;2022-07-03T04:31:52;7.00;;;6.35;;
31464;SDS011;18089;47.428;15.006;2022-07-03T04:34:24;7.90;;;6.78;;
31464;SDS011;18089;47.428;15.006;2022-07-03T04:36:56;7.60;;;6.80;;
31464;SDS011;18089;47.428;15.006;2022-07-03T04:39:28;8.52;;;6.30;;
31464;SDS011;18089;47.428;15.006;2022-07-03T04:42:00;6.30;;;5.72;;
31464;SDS011;18089;47.428;15.006;2022-07-03T04:44:32;8.40;;;6.57;;
31464;SDS011;18089;47.428;15.006;2022-07-03T04:47:05;6.93;;;6.38;;
31464;SDS011;18089;47.428;15.006;2022-07-03T04:49:38;8.30;;;7.40;;
31464;SDS011;18089;47.428;15.006;2022-07-03T04:52:10;15.73;;;13.23;;
31464;SDS011;18089;47.428;15.006;2022-07-03T04:54:42;11.88;;;10.07;;
31464;SDS011;18089;47.428;15.006;2022-07-03T04:57:14;9.32;;;7.65;;
31464;SDS011;18089;47.428;15.006;2022-07-03T04:59:46;8.27;;;7.03;;
31464;SDS011;18089;47.428;15.006;2022-07-03T05:02:19;9.75;;;6.75;;
31464;SDS011;18089;47.428;15.006;2022-07-03T05:04:51;6.72;;;6.05;;
31464;SDS011;18089;47.428;15.006;2022-07-03T05:07:23;6.25;;;5.15;;
31464;SDS011;18089;47.428;15.006;2022-07-03T05:09:55;5.10;;;4.50;;
31464;SDS011;18089;47.428;15.006;2022-07-03T05:12:28;4.10;;;3.70;;
31464;SDS011;18089;47.428;15.006;2022-07-03T05:15:00;3.75;;;3.45;;
31464;SDS011;18089;47.428;15.006;2022-07-03T05:17:34;6.75;;;3.28;;
31464;SDS011;18089;47.428;15.006;2022-07-03T05:20:07;3.30;;;3.00;;
31464;SDS011;18089;47.428;15.006;2022-07-03T05:22:59;5.95;;;2.95;;
31464;SDS011;18089;47.428;15.006;2022-07-03T05:25:32;5.45;;;3.00;;
31464;SDS011;18089;47.428;15.006;2022-07-03T05:28:04;4.60;;;3.10;;
31464;SDS011;18089;47.428;15.006;2022-07-03T05:30:36;6.18;;;3.10;;
31464;SDS011;18089;47.428;15.006;2022-07-03T05:33:09;4.63;;;3.70;;
31464;SDS011;18089;47.428;15.006;2022-07-03T05:35:41;5.47;;;3.78;;
31464;SDS011;18089;47.428;15.006;2022-07-03T05:38:14;4.28;;;3.88;;
31464;SDS011;18089;47.428;15.006;2022-07-03T05:41:07;5.15;;;4.22;;
31464;SDS011;18089;47.428;15.006;2022-07-03T05:43:39;4.28;;;3.72;;
31464;SDS011;18089;47.428;15.006;2022-07-03T05:46:11;5.43;;;4.05;;
31464;SDS011;18089;47.428;15.006;2022-07-03T05:48:44;4.45;;;4.10;;
31464;SDS011;18089;47.428;15.006;2022-07-03T05:51:16;4.85;;;3.88;;
31464;SDS011;18089;47.428;15.006;2022-07-03T05:53:48;4.53;;;4.13;;
31464;SDS011;18089;47.428;15.006;2022-07-03T05:56:20;4.47;;;4.07;;
31464;SDS011;18089;47.428;15.006;2022-07-03T05:58:52;4.55;;;4.13;;
31464;SDS011;18089;47.428;15.006;2022-07-03T06:01:24;4.07;;;3.67;;
31464;SDS011;18089;47.428;15.006;2022-07-03T06:03:58;5.63;;;3.95;;
31464;SDS011;18089;47.428;15.006;2022-07-03T06:06:30;4.22;;;3.88;;
31464;SDS011;18089;47.428;15.006;2022-07-03T06:09:02;4.05;;;3.75;;
31464;SDS011;18089;47.428;15.006;2022-07-03T06:11:34;4.28;;;3.72;;
31464;SDS011;18089;47.428;15.006;2022-07-03T06:14:06;4.75;;;3.80;;
31464;SDS011;18089;47.428;15.006;2022-07-03T06:16:38;3.90;;;3.60;;
31464;SDS011;18089;47.428;15.006;2022-07-03T06:19:11;4.53;;;3.60;;
31464;SDS011;18089;47.428;15.006;2022-07-03T06:21:43;4.10;;;3.80;;
31464;SDS011;18089;47.428;15.006;2022-07-03T06:24:16;3.85;;;3.47;;
31464;SDS011;18089;47.428;15.006;2022-07-03T06:26:47;4.97;;;3.10;;
31464;SDS011;18089;47.428;15.006;2022-07-03T06:29:20;3.65;;;3.40;;
31464;SDS011;18089;47.428;15.006;2022-07-03T06:31:52;3.60;;;3.28;;
31464;SDS011;18089;47.428;15.006;2022-07-03T06:34:25;3.92;;;3.50;;
31464;SDS011;18089;47.428;15.006;2022-07-03T06:36:57;4.32;;;3.63;;
31464;SDS011;18089;47.428;15.006;2022-07-03T06:39:29;3.72;;;3.42;;
31464;SDS011;18089;47.428;15.006;2022-07-03T06:42:02;5.03;;;3.80;;
31464;SDS011;18089;47.428;15.006;2022-07-03T06:44:34;4.18;;;3.50;;
31464;SDS011;18089;47.428;15.006;2022-07-03T06:47:06;5.50;;;3.85;;
31464;SDS011;18089;47.428;15.006;2022-07-03T06:49:40;6.63;;;3.80;;
31464;SDS011;18089;47.428;15.006;2022-07-03T06:52:13;3.95;;;3.60;;
31464;SDS011;18089;47.428;15.006;2022-07-03T06:54:45;4.05;;;3.75;;
31464;SDS011;18089;47.428;15.006;2022-07-03T06:57:17;4.80;;;3.65;;
31464;SDS011;18089;47.428;15.006;2022-07-03T06:59:49;4.20;;;3.80;;
31464;SDS011;18089;47.428;15.006;2022-07-03T07:02:21;5.50;;;3.80;;
31464;SDS011;18089;47.428;15.006;2022-07-03T07:04:54;3.85;;;3.53;;
31464;SDS011;18089;47.428;15.006;2022-07-03T07:07:26;7.45;;;3.33;;
31464;SDS011;18089;47.428;15.006;2022-07-03T07:09:58;4.30;;;3.60;;
31464;SDS011;18089;47.428;15.006;2022-07-03T07:12:30;3.58;;;3.28;;
31464;SDS011;18089;47.428;15.006;2022-07-03T07:15:03;3.88;;;3.13;;
31464;SDS011;18089;47.428;15.006;2022-07-03T07:17:35;3.38;;;3.03;;
31464;SDS011;18089;47.428;15.006;2022-07-03T07:20:09;3.05;;;2.83;;
31464;SDS011;18089;47.428;15.006;2022-07-03T07:22:42;3.45;;;2.85;;
31464;SDS011;18089;47.428;15.006;2022-07-03T07:25:14;3.60;;;2.78;;
31464;SDS011;18089;47.428;15.006;2022-07-03T07:27:46;4.63;;;3.30;;
31464;SDS011;18089;47.428;15.006;2022-07-03T07:30:18;3.60;;;2.65;;
31464;SDS011;18089;47.428;15.006;2022-07-03T07:32:50;3.25;;;2.70;;
31464;SDS011;18089;47.428;15.006;2022-07-03T07:35:23;3.10;;;2.80;;
31464;SDS011;18089;47.428;15.006;2022-07-03T07:37:55;2.97;;;2.67;;
31464;SDS011;18089;47.428;15.006;2022-07-03T07:40:27;4.30;;;2.80;;
31464;SDS011;18089;47.428;15.006;2022-07-03T07:42:59;4.97;;;2.50;;
31464;SDS011;18089;47.428;15.006;2022-07-03T07:45:31;3.95;;;2.78;;
31464;SDS011;18089;47.428;15.006;2022-07-03T07:48:04;3.20;;;2.90;;
31464;SDS011;18089;47.428;15.006;2022-07-03T07:50:38;3.47;;;3.17;;
31464;SDS011;18089;47.428;15.006;2022-07-03T07:53:10;4.65;;;3.15;;
31464;SDS011;18089;47.428;15.006;2022-07-03T07:55:42;5.55;;;3.55;;
31464;SDS011;18089;47.428;15.006;2022-07-03T07:58:14;13.60;;;12.18;;
31464;SDS011;18089;47.428;15.006;2022-07-03T08:00:46;4.03;;;3.58;;
31464;SDS011;18089;47.428;15.006;2022-07-03T08:03:32;4.13;;;3.30;;
31464;SDS011;18089;47.428;15.006;2022-07-03T08:06:23;5.10;;;3.83;;
31464;SDS011;18089;47.428;15.006;2022-07-03T08:08:55;8.25;;;7.00;;
31464;SDS011;18089;47.428;15.006;2022-07-03T08:11:27;4.40;;;3.55;;
31464;SDS011;18089;47.428;15.006;2022-07-03T08:13:59;5.03;;;4.07;;
31464;SDS011;18089;47.428;15.006;2022-07-03T08:16:31;6.00;;;3.80;;
31464;SDS011;18089;47.428;15.006;2022-07-03T08:19:03;3.85;;;3.53;;
31464;SDS011;18089;47.428;15.006;2022-07-03T08:21:36;12.93;;;11.38;;
31464;SDS011;18089;47.428;15.006;2022-07-03T08:24:08;3.88;;;3.33;;
31464;SDS011;18089;47.428;15.006;2022-07-03T08:26:41;17.67;;;12.77;;
31464;SDS011;18089;47.428;15.006;2022-07-03T08:29:13;5.35;;;3.60;;
31464;SDS011;18089;47.428;15.006;2022-07-03T08:31:45;4.35;;;3.53;;
31464;SDS011;18089;47.428;15.006;2022-07-03T08:34:17;6.68;;;5.15;;
31464;SDS011;18089;47.428;15.006;2022-07-03T08:36:50;9.23;;;8.02;;
31464;SDS011;18089;47.428;15.006;2022-07-03T08:39:22;3.85;;;3.50;;
31464;SDS011;18089;47.428;15.006;2022-07-03T08:41:54;6.10;;;3.15;;
31464;SDS011;18089;47.428;15.006;2022-07-03T08:44:27;5.03;;;3.53;;
31464;SDS011;18089;47.428;15.006;2022-07-03T08:47:00;8.15;;;7.20;;
31464;SDS011;18089;47.428;15.006;2022-07-03T08:49:34;3.42;;;2.92;;
31464;SDS011;18089;47.428;15.006;2022-07-03T08:52:08;6.38;;;3.15;;
31464;SDS011;18089;47.428;15.006;2022-07-03T08:54:41;4.45;;;3.90;;
31464;SDS011;18089;47.428;15.006;2022-07-03T08:57:13;7.43;;;3.38;;
31464;SDS011;18089;47.428;15.006;2022-07-03T08:59:45;3.97;;;2.60;;
31464;SDS011;18089;47.428;15.006;2022-07-03T09:02:23;5.00;;;2.85;;
31464;SDS011;18089;47.428;15.006;2022-07-03T09:04:57;6.70;;;3.10;;
31464;SDS011;18089;47.428;15.006;2022-07-03T09:07:34;3.67;;;2.83;;
31464;SDS011;18089;47.428;15.006;2022-07-03T09:10:08;3.40;;;2.55;;
31464;SDS011;18089;47.428;15.006;2022-07-03T09:12:41;4.63;;;2.60;;
31464;SDS011;18089;47.428;15.006;2022-07-03T09:15:14;3.83;;;2.35;;
31464;SDS011;18089;47.428;15.006;2022-07-03T09:17:56;2.50;;;2.30;;
31464;SDS011;18089;47.428;15.006;2022-07-03T09:20:30;2.55;;;2.25;;
31464;SDS011;18089;47.428;15.006;2022-07-03T09:23:11;5.28;;;2.70;;
31464;SDS011;18089;47.428;15.006;2022-07-03T09:25:54;3.60;;;2.50;;
31464;SDS011;18089;47.428;15.006;2022-07-03T09:28:40;3.63;;;2.15;;
31464;SDS011;18089;47.428;15.006;2022-07-03T09:31:15;5.70;;;2.10;;
31464;SDS011;18089;47.428;15.006;2022-07-03T09:33:53;2.53;;;2.30;;
31464;SDS011;18089;47.428;15.006;2022-07-03T09:36:39;3.25;;;2.40;;
31464;SDS011;18089;47.428;15.006;2022-07-03T09:39:20;2.38;;;2.17;;
31464;SDS011;18089;47.428;15.006;2022-07-03T09:41:55;2.47;;;2.25;;
31464;SDS011;18089;47.428;15.006;2022-07-03T09:44:29;3.13;;;2.40;;
31464;SDS011;18089;47.428;15.006;2022-07-03T09:47:08;3.40;;;2.30;;
31464;SDS011;18089;47.428;15.006;2022-07-03T09:49:48;2.38;;;2.17;;
31464;SDS011;18089;47.428;15.006;2022-07-03T09:52:29;2.17;;;1.98;;
31464;SDS011;18089;47.428;15.006;2022-07-03T09:55:14;1.75;;;1.60;;
31464;SDS011;18089;47.428;15.006;2022-07-03T09:57:57;1.75;;;1.65;;
31464;SDS011;18089;47.428;15.006;2022-07-03T10:00:31;3.08;;;1.63;;
31464;SDS011;18089;47.428;15.006;2022-07-03T10:03:05;2.72;;;1.60;;
31464;SDS011;18089;47.428;15.006;2022-07-03T10:05:38;4.03;;;1.98;;
31464;SDS011;18089;47.428;15.006;2022-07-03T10:08:11;3.28;;;1.90;;
31464;SDS011;18089;47.428;15.006;2022-07-03T10:10:47;1.70;;;1.60;;
31464;SDS011;18089;47.428;15.006;2022-07-03T10:13:19;1.75;;;1.65;;
31464;SDS011;18089;47.428;15.006;2022-07-03T10:15:52;1.90;;;1.58;;
31464;SDS011;18089;47.428;15.006;2022-07-03T10:18:26;2.33;;;1.45;;
31464;SDS011;18089;47.428;15.006;2022-07-03T10:21:01;2.10;;;1.48;;
31464;SDS011;18089;47.428;15.006;2022-07-03T10:23:37;1.65;;;1.52;;
31464;SDS011;18089;47.428;15.006;2022-07-03T10:26:10;4.20;;;1.65;;
31464;SDS011;18089;47.428;15.006;2022-07-03T10:28:42;1.40;;;1.30;;
31464;SDS011;18089;47.428;15.006;2022-07-03T10:31:15;2.78;;;1.20;;
31464;SDS011;18089;47.428;15.006;2022-07-03T10:33:47;1.67;;;0.90;;
31464;SDS011;18089;47.428;15.006;2022-07-03T10:36:19;2.08;;;1.13;;
31464;SDS011;18089;47.428;15.006;2022-07-03T10:38:52;1.88;;;1.00;;
31464;SDS011;18089;47.428;15.006;2022-07-03T10:41:30;1.83;;;1.20;;
31464;SDS011;18089;47.428;15.006;2022-07-03T10:44:22;1.15;;;1.02;;
31464;SDS011;18089;47.428;15.006;2022-07-03T10:50:12;1.08;;;0.98;;
31464;SDS011;18089;47.428;15.006;2022-07-03T10:52:45;1.13;;;1.02;;
31464;SDS011;18089;47.428;15.006;2022-07-03T10:55:18;1.42;;;1.08;;
31464;SDS011;18089;47.428;15.006;2022-07-03T10:58:06;1.70;;;1.27;;
31464;SDS011;18089;47.428;15.006;2022-07-03T11:00:51;1.33;;;1.00;;
31464;SDS011;18089;47.428;15.006;2022-07-03T11:09:39;1.77;;;1.67;;
31464;SDS011;18089;47.428;15.006;2022-07-03T11:12:11;1.80;;;1.20;;
31464;SDS011;18089;47.428;15.006;2022-07-03T11:14:44;1.98;;;1.08;;
31464;SDS011;18089;47.428;15.006;2022-07-03T11:17:16;1.00;;;1.00;;
31464;SDS011;18089;47.428;15.006;2022-07-03T11:19:49;2.88;;;1.00;;
31464;SDS011;18089;47.428;15.006;2022-07-03T11:22:38;1.13;;;0.90;;
31464;SDS011;18089;47.428;15.006;2022-07-03T11:25:16;1.30;;;1.20;;
31464;SDS011;18089;47.428;15.006;2022-07-03T11:27:48;2.95;;;1.25;;
31464;SDS011;18089;47.428;15.006;2022-07-03T11:30:24;1.20;;;1.08;;
31464;SDS011;18089;47.428;15.006;2022-07-03T11:32:59;1.25;;;1.15;;
31464;SDS011;18089;47.428;15.006;2022-07-03T11:35:47;3.42;;;1.30;;
31464;SDS011;18089;47.428;15.006;2022-07-03T11:38:25;6.95;;;6.13;;
31464;SDS011;18089;47.428;15.006;2022-07-03T11:40:59;5.35;;;2.65;;
31464;SDS011;18089;47.428;15.006;2022-07-03T11:43:32;1.27;;;1.00;;
31464;SDS011;18089;47.428;15.006;2022-07-03T11:46:05;1.30;;;1.20;;
31464;SDS011;18089;47.428;15.006;2022-07-03T11:48:37;5.10;;;1.40;;
31464;SDS011;18089;47.428;15.006;2022-07-03T11:51:09;1.00;;;1.00;;
31464;SDS011;18089;47.428;15.006;2022-07-03T11:53:42;1.67;;;1.55;;
31464;SDS011;18089;47.428;15.006;2022-07-03T11:56:13;1.98;;;1.23;;
31464;SDS011;18089;47.428;15.006;2022-07-03T11:58:46;2.47;;;1.50;;
31464;SDS011;18089;47.428;15.006;2022-07-03T12:01:31;2.13;;;1.05;;
31464;SDS011;18089;47.428;15.006;2022-07-03T12:04:05;6.32;;;2.10;;
31464;SDS011;18089;47.428;15.006;2022-07-03T12:06:38;1.10;;;1.00;;
31464;SDS011;18089;47.428;15.006;2022-07-03T12:09:12;1.65;;;1.17;;
31464;SDS011;18089;47.428;15.006;2022-07-03T12:11:55;1.63;;;1.20;;
31464;SDS011;18089;47.428;15.006;2022-07-03T12:14:34;0.80;;;0.80;;
31464;SDS011;18089;47.428;15.006;2022-07-03T12:17:13;1.20;;;1.10;;
31464;SDS011;18089;47.428;15.006;2022-07-03T12:19:47;1.30;;;1.20;;
31464;SDS011;18089;47.428;15.006;2022-07-03T12:22:23;1.77;;;0.93;;
31464;SDS011;18089;47.428;15.006;2022-07-03T12:24:56;0.80;;;0.80;;
31464;SDS011;18089;47.428;15.006;2022-07-03T12:27:31;1.70;;;1.15;;
31464;SDS011;18089;47.428;15.006;2022-07-03T12:30:05;1.27;;;0.90;;
31464;SDS011;18089;47.428;15.006;2022-07-03T12:32:40;2.80;;;0.95;;
31464;SDS011;18089;47.428;15.006;2022-07-03T12:35:12;1.02;;;0.93;;
31464;SDS011;18089;47.428;15.006;2022-07-03T12:37:44;1.38;;;1.00;;
31464;SDS011;18089;47.428;15.006;2022-07-03T12:40:16;1.95;;;0.80;;
31464;SDS011;18089;47.428;15.006;2022-07-03T12:42:49;0.82;;;0.80;;
31464;SDS011;18089;47.428;15.006;2022-07-03T12:45:22;0.98;;;0.98;;
31464;SDS011;18089;47.428;15.006;2022-07-03T12:48:00;1.73;;;1.15;;
31464;SDS011;18089;47.428;15.006;2022-07-03T12:50:43;1.30;;;1.13;;
31464;SDS011;18089;47.428;15.006;2022-07-03T12:53:28;2.00;;;1.02;;
31464;SDS011;18089;47.428;15.006;2022-07-03T12:56:01;1.55;;;0.98;;
31464;SDS011;18089;47.428;15.006;2022-07-03T12:58:33;1.48;;;0.90;;
31464;SDS011;18089;47.428;15.006;2022-07-03T13:01:24;1.52;;;0.95;;
31464;SDS011;18089;47.428;15.006;2022-07-03T13:03:58;2.95;;;0.90;;
31464;SDS011;18089;47.428;15.006;2022-07-03T13:06:31;3.13;;;0.93;;
31464;SDS011;18089;47.428;15.006;2022-07-03T13:09:04;2.50;;;0.88;;
31464;SDS011;18089;47.428;15.006;2022-07-03T13:11:37;2.28;;;0.93;;
31464;SDS011;18089;47.428;15.006;2022-07-03T13:14:11;1.50;;;0.98;;
31464;SDS011;18089;47.428;15.006;2022-07-03T13:16:44;0.80;;;0.80;;
31464;SDS011;18089;47.428;15.006;2022-07-03T13:19:18;0.90;;;0.90;;
31464;SDS011;18089;47.428;15.006;2022-07-03T13:21:52;1.13;;;0.90;;
31464;SDS011;18089;47.428;15.006;2022-07-03T13:24:25;4.20;;;2.95;;
31464;SDS011;18089;47.428;15.006;2022-07-03T13:26:57;6.05;;;2.92;;
31464;SDS011;18089;47.428;15.006;2022-07-03T13:29:29;3.65;;;2.03;;
31464;SDS011;18089;47.428;15.006;2022-07-03T13:32:01;1.40;;;0.90;;
31464;SDS011;18089;47.428;15.006;2022-07-03T13:34:35;2.63;;;1.00;;
31464;SDS011;18089;47.428;15.006;2022-07-03T13:37:07;1.88;;;1.13;;
31464;SDS011;18089;47.428;15.006;2022-07-03T13:39:39;2.13;;;1.08;;
31464;SDS011;18089;47.428;15.006;2022-07-03T13:42:11;1.35;;;0.80;;
31464;SDS011;18089;47.428;15.006;2022-07-03T13:44:43;1.85;;;1.00;;
31464;SDS011;18089;47.428;15.006;2022-07-03T13:47:15;0.88;;;0.88;;
31464;SDS011;18089;47.428;15.006;2022-07-03T13:49:48;1.52;;;1.00;;
31464;SDS011;18089;47.428;15.006;2022-07-03T13:52:22;2.78;;;1.30;;
31464;SDS011;18089;47.428;15.006;2022-07-03T13:54:54;1.65;;;1.00;;
31464;SDS011;18089;47.428;15.006;2022-07-03T13:57:26;2.33;;;1.10;;
31464;SDS011;18089;47.428;15.006;2022-07-03T13:59:58;1.42;;;1.15;;
31464;SDS011;18089;47.428;15.006;2022-07-03T14:02:30;1.65;;;0.95;;
31464;SDS011;18089;47.428;15.006;2022-07-03T14:05:04;1.98;;;1.30;;
31464;SDS011;18089;47.428;15.006;2022-07-03T14:07:36;1.52;;;1.00;;
31464;SDS011;18089;47.428;15.006;2022-07-03T14:10:08;1.25;;;1.10;;
31464;SDS011;18089;47.428;15.006;2022-07-03T14:12:40;1.05;;;0.90;;
31464;SDS011;18089;47.428;15.006;2022-07-03T14:15:12;2.30;;;1.50;;
31464;SDS011;18089;47.428;15.006;2022-07-03T14:17:44;1.00;;;1.00;;
31464;SDS011;18089;47.428;15.006;2022-07-03T14:20:19;1.08;;;1.02;;
31464;SDS011;18089;47.428;15.006;2022-07-03T14:22:51;1.73;;;1.27;;
31464;SDS011;18089;47.428;15.006;2022-07-03T14:25:23;1.20;;;1.10;;
31464;SDS011;18089;47.428;15.006;2022-07-03T14:27:55;2.53;;;1.38;;
31464;SDS011;18089;47.428;15.006;2022-07-03T14:30:44;2.00;;;1.38;;
31464;SDS011;18089;47.428;15.006;2022-07-03T14:33:34;1.52;;;1.30;;
31464;SDS011;18089;47.428;15.006;2022-07-03T14:36:07;3.30;;;1.30;;
31464;SDS011;18089;47.428;15.006;2022-07-03T14:38:41;1.30;;;1.20;;
31464;SDS011;18089;47.428;15.006;2022-07-03T14:41:13;2.97;;;1.20;;
31464;SDS011;18089;47.428;15.006;2022-07-03T14:43:45;1.30;;;1.20;;
31464;SDS011;18089;47.428;15.006;2022-07-03T14:46:17;3.47;;;1.42;;
31464;SDS011;18089;47.428;15.006;2022-07-03T14:48:50;1.40;;;1.30;;
31464;SDS011;18089;47.428;15.006;2022-07-03T14:51:24;1.35;;;1.00;;
31464;SDS011;18089;47.428;15.006;2022-07-03T14:53:56;3.17;;;1.17;;
31464;SDS011;18089;47.428;15.006;2022-07-03T14:56:28;1.33;;;1.10;;
31464;SDS011;18089;47.428;15.006;2022-07-03T14:59:01;1.48;;;1.23;;
31464;SDS011;18089;47.428;15.006;2022-07-03T15:01:37;1.20;;;1.10;;
31464;SDS011;18089;47.428;15.006;2022-07-03T15:04:14;1.17;;;1.15;;
31464;SDS011;18089;47.428;15.006;2022-07-03T15:06:53;2.05;;;1.20;;
31464;SDS011;18089;47.428;15.006;2022-07-03T15:09:26;2.00;;;1.23;;
31464;SDS011;18089;47.428;15.006;2022-07-03T15:12:00;1.50;;;1.40;;
31464;SDS011;18089;47.428;15.006;2022-07-03T15:14:51;1.35;;;1.25;;
31464;SDS011;18089;47.428;15.006;2022-07-03T15:17:25;2.78;;;1.30;;
31464;SDS011;18089;47.428;15.006;2022-07-03T15:19:57;2.92;;;2.05;;
31464;SDS011;18089;47.428;15.006;2022-07-03T15:22:31;3.25;;;1.55;;
31464;SDS011;18089;47.428;15.006;2022-07-03T15:25:04;1.90;;;1.65;;
31464;SDS011;18089;47.428;15.006;2022-07-03T15:27:37;1.48;;;1.38;;